San Diego, California
Traffic Map
Current Weather Conditions
San Diego, California
Few Clouds
Few Clouds
67°
Feels Like: 67°
Wind Chill: 67° Ceiling: Unl
Heat Index: 67° Visibility: 10mi
Dew Point: 35° Wind: 8mph
Humidity: 31% Direction: 310° (NW)
Pressure: 30.13in Gusts: 0mph
Raw Report DataKSAN 182151Z 31007KT 10SM FEW250 19/02 A3013 RMK AO2 SLP201 T01940017
Traffic Incident Summary
Active as of:
Severity:
Category:
InformationThere was an issue retrieving the traffic information for this location. Please try a different location or try again shortly.
Advertisements